createdAt,value
2022-12-19T00:01:22.635Z,101787.59
2022-12-19T00:03:53.658Z,101788.44
2022-12-19T00:06:20.836Z,101795.50
2022-12-19T00:08:50.165Z,101782.22
2022-12-19T00:11:18.403Z,101788.41
2022-12-19T00:13:45.506Z,101798.13
2022-12-19T00:16:15.892Z,101796.38
2022-12-19T00:18:46.760Z,101791.94
2022-12-19T00:21:16.268Z,101783.91
2022-12-19T00:23:43.820Z,101778.59
2022-12-19T00:26:16.738Z,101780.31
2022-12-19T00:28:47.135Z,101765.19
2022-12-19T00:31:15.679Z,101767.69
2022-12-19T00:33:43.699Z,101750.81
2022-12-19T00:36:14.519Z,101766.72
2022-12-19T00:38:44.173Z,101735.72
2022-12-19T00:41:20.680Z,101740.13
2022-12-19T00:43:52.664Z,101725.84
2022-12-19T00:46:19.398Z,101716.03
2022-12-19T00:48:45.934Z,101713.31
2022-12-19T00:51:17.900Z,101705.34
2022-12-19T00:53:46.150Z,101688.44
2022-12-19T00:56:17.848Z,101674.22
2022-12-19T00:58:47.373Z,101696.34
2022-12-19T01:01:29.288Z,101661.75
2022-12-19T01:04:27.360Z,101667.78
2022-12-19T01:06:44.938Z,101687.22
2022-12-19T01:09:12.374Z,101684.44
2022-12-19T01:11:57.591Z,101688.75
2022-12-19T01:14:24.656Z,101668.28
2022-12-19T01:16:51.960Z,101662.91
2022-12-19T01:19:19.587Z,101679.69
2022-12-19T01:21:46.655Z,101678.66
2022-12-19T01:24:13.746Z,101678.53
2022-12-19T01:26:49.151Z,101678.44
2022-12-19T01:29:15.652Z,101673.00
2022-12-19T01:31:42.337Z,101667.56
2022-12-19T01:34:09.127Z,101650.63
2022-12-19T01:36:39.643Z,101657.63
2022-12-19T01:39:07.584Z,101649.56
2022-12-19T01:41:34.910Z,101651.25
2022-12-19T01:44:04.827Z,101641.41
2022-12-19T01:46:42.395Z,101650.22
2022-12-19T01:49:29.844Z,101653.63
2022-12-19T01:52:10.975Z,101653.47
2022-12-19T01:54:42.011Z,101643.63
2022-12-19T01:57:13.246Z,101625.72
2022-12-19T01:59:47.737Z,101633.66
2022-12-19T02:02:23.404Z,101628.34
2022-12-19T02:04:50.064Z,101631.81
2022-12-19T02:07:18.566Z,101619.31
2022-12-19T02:09:46.872Z,101623.66
2022-12-19T02:12:14.311Z,101619.94
2022-12-19T02:14:41.858Z,101626.91
2022-12-19T02:17:41.876Z,101609.06
2022-12-19T02:20:24.077Z,101606.09
2022-12-19T02:23:27.999Z,101603.38
2022-12-19T02:26:32.927Z,101597.84
2022-12-19T02:29:23.730Z,101595.06
2022-12-19T02:32:18.580Z,101587.94
2022-12-19T02:35:04.224Z,101596.75
2022-12-19T02:37:36.061Z,101599.34
2022-12-19T02:40:50.074Z,101601.09
2022-12-19T02:43:23.874Z,101592.84
2022-12-19T02:45:52.637Z,101590.09
2022-12-19T02:48:20.077Z,101580.25
2022-12-19T02:50:48.446Z,101576.66
2022-12-19T02:53:18.223Z,101573.03
2022-12-19T02:56:01.373Z,101571.16
2022-12-19T02:58:57.011Z,101566.63
2022-12-19T03:01:40.146Z,101561.25
2022-12-19T03:04:19.241Z,101563.84
2022-12-19T03:07:03.786Z,101557.59
2022-12-19T03:10:06.370Z,101553.91
2022-12-19T03:12:39.427Z,101554.72
2022-12-19T03:15:07.198Z,101552.00
2022-12-19T03:17:38.126Z,101545.72
2022-12-19T03:20:10.416Z,101554.66
2022-12-19T03:22:37.107Z,101556.34
2022-12-19T03:25:03.813Z,101552.53
2022-12-19T03:27:35.644Z,101553.41
2022-12-19T03:30:08.762Z,101547.03
2022-12-19T03:32:38.164Z,101556.69
2022-12-19T03:35:14.288Z,101547.69
2022-12-19T03:37:43.166Z,101537.88
2022-12-19T03:40:22.103Z,101536.97
2022-12-19T03:43:11.372Z,101543.84
2022-12-19T03:46:02.690Z,101541.03
2022-12-19T03:48:45.257Z,101539.91
2022-12-19T03:51:37.754Z,101530.84
2022-12-19T03:54:18.818Z,101533.31
2022-12-19T03:57:02.135Z,101520.63
2022-12-19T03:59:39.361Z,101520.44
2022-12-19T04:02:08.193Z,101514.94
2022-12-19T04:04:43.589Z,101526.34
2022-12-19T04:07:12.818Z,101517.44
2022-12-19T04:09:42.535Z,101522.66
2022-12-19T04:12:15.371Z,101508.31
2022-12-19T04:14:42.239Z,101517.97
2022-12-19T04:17:26.890Z,101516.09
2022-12-19T04:20:12.840Z,101509.63
2022-12-19T04:22:51.153Z,101512.94
2022-12-19T04:25:29.154Z,101508.06
2022-12-19T04:28:01.853Z,101502.66
2022-12-19T04:30:28.432Z,101500.78
2022-12-19T04:32:55.442Z,101499.84
2022-12-19T04:35:22.017Z,101501.44
2022-12-19T04:37:48.579Z,101503.09
2022-12-19T04:40:15.386Z,101494.88
2022-12-19T04:42:41.954Z,101485.84
2022-12-19T04:45:09.403Z,101482.09
2022-12-19T04:47:36.082Z,101486.28
2022-12-19T04:50:02.588Z,101489.59
2022-12-19T04:52:29.094Z,101488.50
2022-12-19T04:54:55.618Z,101485.53
2022-12-19T04:57:22.222Z,101483.56
2022-12-19T04:59:48.726Z,101485.06
2022-12-19T05:02:15.335Z,101482.25
2022-12-19T05:04:41.958Z,101477.53
2022-12-19T05:07:08.622Z,101480.94
2022-12-19T05:09:36.669Z,101488.72
2022-12-19T05:12:03.352Z,101484.97
2022-12-19T05:14:29.954Z,101486.53
2022-12-19T05:17:01.565Z,101480.09
2022-12-19T05:19:28.424Z,101479.88
2022-12-19T05:21:55.126Z,101482.38
2022-12-19T05:24:22.026Z,101483.03
2022-12-19T05:26:49.745Z,101485.47
2022-12-19T05:29:17.198Z,101477.28
2022-12-19T05:31:43.820Z,101469.09
2022-12-19T05:34:10.446Z,101474.22
2022-12-19T05:36:36.928Z,101473.91
2022-12-19T05:39:03.451Z,101479.16
2022-12-19T05:41:30.024Z,101468.19
2022-12-19T05:43:56.883Z,101467.09
2022-12-19T05:46:24.691Z,101463.31
2022-12-19T05:48:52.509Z,101458.63
2022-12-19T05:51:19.741Z,101455.78
2022-12-19T05:53:46.562Z,101454.59
2022-12-19T05:56:16.015Z,101461.53
2022-12-19T05:58:43.366Z,101455.84
2022-12-19T06:01:12.885Z,101458.19
2022-12-19T06:03:39.839Z,101467.78
2022-12-19T06:06:12.218Z,101463.06
2022-12-19T06:08:39.447Z,101464.53
2022-12-19T06:11:07.650Z,101449.19
2022-12-19T06:13:35.970Z,101466.81
2022-12-19T06:16:05.644Z,101442.38
2022-12-19T06:18:32.336Z,101464.44
2022-12-19T06:21:00.790Z,101443.63
2022-12-19T06:23:30.742Z,101446.91
2022-12-19T06:25:58.366Z,101461.72
2022-12-19T06:28:26.403Z,101441.81
2022-12-19T06:30:56.185Z,101452.13
2022-12-19T06:33:23.511Z,101453.50
2022-12-19T06:36:05.737Z,101450.47
2022-12-19T06:38:33.395Z,101456.28
2022-12-19T06:41:19.139Z,101458.69
2022-12-19T06:43:49.197Z,101470.72
2022-12-19T06:46:19.824Z,101467.00
2022-12-19T06:48:46.447Z,101464.94
2022-12-19T06:51:12.997Z,101466.41
2022-12-19T06:53:40.295Z,101461.72
2022-12-19T06:56:07.111Z,101457.81
2022-12-19T06:58:34.775Z,101466.66
2022-12-19T07:01:01.699Z,101455.75
2022-12-19T07:03:41.292Z,101483.25
2022-12-19T07:06:08.701Z,101467.84
2022-12-19T07:08:35.248Z,101485.50
2022-12-19T07:11:01.811Z,101474.56
2022-12-19T07:13:28.405Z,101470.75
2022-12-19T07:15:58.575Z,101487.63
2022-12-19T07:18:25.312Z,101471.34
2022-12-19T07:20:51.991Z,101490.81
2022-12-19T07:23:21.049Z,101470.88
2022-12-19T07:25:47.726Z,101484.22
2022-12-19T07:28:15.191Z,101475.06
2022-12-19T07:30:41.811Z,101479.28
2022-12-19T07:33:11.080Z,101481.78
2022-12-19T07:35:38.512Z,101486.03
2022-12-19T07:38:06.553Z,101480.56
2022-12-19T07:40:34.070Z,101481.25
2022-12-19T07:43:02.711Z,101486.47
2022-12-19T07:45:30.049Z,101489.06
2022-12-19T07:48:00.618Z,101484.47
2022-12-19T07:50:27.296Z,101492.41
2022-12-19T07:52:53.806Z,101494.06
2022-12-19T07:55:20.361Z,101477.84
2022-12-19T07:57:46.999Z,101482.34
2022-12-19T08:00:14.180Z,101494.72
2022-12-19T08:02:40.966Z,101495.50
2022-12-19T08:05:08.071Z,101489.25
2022-12-19T08:07:34.726Z,101490.91
2022-12-19T08:10:01.254Z,101505.19
2022-12-19T08:12:27.789Z,101501.56
2022-12-19T08:14:57.295Z,101500.69
2022-12-19T08:17:24.293Z,101495.22
2022-12-19T08:19:50.869Z,101494.25
2022-12-19T08:22:17.411Z,101501.28
2022-12-19T08:24:44.041Z,101498.50
2022-12-19T08:27:10.659Z,101496.66
2022-12-19T08:29:37.142Z,101497.53
2022-12-19T08:32:03.738Z,101509.16
2022-12-19T08:34:30.344Z,101509.16
2022-12-19T08:36:56.903Z,101505.50
2022-12-19T08:39:23.397Z,101499.25
2022-12-19T08:41:49.936Z,101502.81
2022-12-19T08:44:16.451Z,101501.94
2022-12-19T08:46:49.417Z,101490.25
2022-12-19T08:49:16.744Z,101492.94
2022-12-19T08:51:43.434Z,101492.84
2022-12-19T08:54:11.932Z,101503.59
2022-12-19T08:56:46.158Z,101497.25
2022-12-19T08:59:15.840Z,101506.94
2022-12-19T09:01:46.852Z,101512.22
2022-12-19T09:04:51.721Z,101506.75
2022-12-19T09:06:59.965Z,101514.72
2022-12-19T09:09:27.140Z,101506.56
2022-12-19T09:11:53.597Z,101503.03
2022-12-19T09:14:21.053Z,101511.75
2022-12-19T09:16:49.253Z,101505.44
2022-12-19T09:19:16.563Z,101506.28
2022-12-19T09:21:43.531Z,101506.09
2022-12-19T09:24:11.234Z,101512.25
2022-12-19T09:26:42.165Z,101522.81
2022-12-19T09:29:20.683Z,101518.19
2022-12-19T09:31:55.354Z,101520.69
2022-12-19T09:34:22.950Z,101510.72
2022-12-19T09:36:50.966Z,101522.22
2022-12-19T09:39:18.416Z,101522.22
2022-12-19T09:41:47.930Z,101523.00
2022-12-19T09:44:30.908Z,101525.59
2022-12-19T09:47:01.101Z,101519.06
2022-12-19T09:49:41.746Z,101522.63
2022-12-19T09:52:37.088Z,101520.69
2022-12-19T09:55:06.123Z,101515.06
2022-12-19T09:57:39.552Z,101529.38
2022-12-19T10:00:15.124Z,101522.94
2022-12-19T10:02:48.590Z,101522.75
2022-12-19T10:06:20.262Z,101519.88
2022-12-19T10:08:17.849Z,101527.63
2022-12-19T10:12:40.778Z,101525.72
2022-12-19T10:14:26.249Z,101526.28
2022-12-19T10:17:24.794Z,101540.41
2022-12-19T10:20:10.402Z,101533.09
2022-12-19T10:22:51.312Z,101526.66
2022-12-19T10:25:29.678Z,101530.88
2022-12-19T10:28:15.747Z,101533.56
2022-12-19T10:31:31.162Z,101523.47
2022-12-19T10:34:21.150Z,101521.56
2022-12-19T10:39:55.267Z,101526.63
2022-12-19T10:42:30.841Z,101523.94
2022-12-19T10:45:02.596Z,101524.72
2022-12-19T10:47:31.269Z,101525.47
2022-12-19T10:50:01.402Z,101522.78
2022-12-19T10:52:52.507Z,101521.72
2022-12-19T10:55:29.967Z,101520.75
2022-12-19T10:58:00.380Z,101516.16
2022-12-19T11:00:28.298Z,101521.53
2022-12-19T11:03:19.111Z,101514.31
2022-12-19T11:05:57.509Z,101518.63
2022-12-19T11:08:31.380Z,101523.16
2022-12-19T11:12:02.632Z,101524.88
2022-12-19T11:18:10.853Z,101510.47
2022-12-19T11:20:06.086Z,101519.28
2022-12-19T11:29:25.675Z,101514.63
2022-12-19T11:29:30.743Z,101503.75
2022-12-19T11:29:44.967Z,101498.06
2022-12-19T11:30:47.265Z,101494.72
2022-12-19T11:32:32.264Z,101504.31
2022-12-19T11:34:19.396Z,101490.94
2022-12-19T11:36:57.746Z,101488.16
2022-12-19T11:39:48.082Z,101492.69
2022-12-19T11:42:29.408Z,101485.38
2022-12-19T11:45:32.450Z,101494.31
2022-12-19T11:48:10.352Z,101471.81
2022-12-19T11:50:48.413Z,101480.69
2022-12-19T11:53:19.914Z,101476.91
2022-12-19T11:56:16.506Z,101474.13
2022-12-19T11:58:50.317Z,101483.72
2022-12-19T12:01:51.168Z,101474.69
2022-12-19T12:04:35.773Z,101461.97
2022-12-19T12:07:14.249Z,101464.56
2022-12-19T12:14:22.676Z,101459.94
2022-12-19T12:17:53.243Z,101454.34
2022-12-19T12:31:01.055Z,101464.03
2022-12-19T12:31:17.623Z,101454.47
2022-12-19T12:31:22.672Z,101459.31
2022-12-19T12:31:48.725Z,101461.38
2022-12-19T12:35:07.037Z,101445.22
2022-12-19T12:35:56.481Z,101446.94
2022-12-19T12:38:39.046Z,101429.72
2022-12-19T12:41:47.208Z,101428.75
2022-12-19T12:44:14.092Z,101428.53
2022-12-19T12:46:47.870Z,101429.50
2022-12-19T12:49:44.071Z,101427.56
2022-12-19T12:52:20.085Z,101429.84
2022-12-19T12:54:49.455Z,101427.78
2022-12-19T12:57:20.295Z,101435.56
2022-12-19T13:00:08.591Z,101439.66
2022-12-19T13:02:35.939Z,101433.06
2022-12-19T13:05:23.370Z,101431.03
2022-12-19T13:07:55.074Z,101433.44
2022-12-19T13:10:27.667Z,101432.47
2022-12-19T13:13:16.612Z,101434.94
2022-12-19T13:15:46.033Z,101428.47
2022-12-19T13:19:01.752Z,101415.00
2022-12-19T13:22:09.280Z,101406.69
2022-12-19T13:24:54.650Z,101393.97
2022-12-19T13:27:21.158Z,101396.56
2022-12-19T13:29:56.823Z,101375.97
2022-12-19T13:32:23.815Z,101376.72
2022-12-19T13:36:15.465Z,101364.00
2022-12-19T13:39:51.157Z,101353.84
2022-12-19T13:41:27.095Z,101350.19
2022-12-19T13:43:59.898Z,101338.44
2022-12-19T13:46:31.194Z,101342.97
2022-12-19T13:49:03.780Z,101333.03
2022-12-19T13:51:41.267Z,101329.47
2022-12-19T13:54:19.288Z,101328.63
2022-12-19T13:56:45.840Z,101331.19
2022-12-19T13:59:13.080Z,101337.56
2022-12-19T14:01:40.853Z,101337.56
2022-12-19T14:04:16.402Z,101334.00
2022-12-19T14:06:45.469Z,101322.03
2022-12-19T14:11:28.391Z,101328.16
2022-12-19T14:12:49.268Z,101339.06
2022-12-19T14:15:13.972Z,101339.19
2022-12-19T14:17:40.833Z,101341.88
2022-12-19T14:22:02.840Z,101334.00
2022-12-19T14:23:14.211Z,101321.41
2022-12-19T14:28:21.384Z,101313.53
2022-12-19T14:28:47.577Z,101310.94
2022-12-19T14:31:19.682Z,101306.41
2022-12-19T14:36:39.991Z,101302.97
2022-12-19T14:39:27.870Z,101310.19
2022-12-19T14:42:19.274Z,101303.84
2022-12-19T14:52:35.577Z,101310.09
2022-12-19T14:54:05.399Z,101311.06
2022-12-19T14:54:25.032Z,101319.03
2022-12-19T14:54:51.480Z,101319.03
2022-12-19T14:58:59.258Z,101300.91
2022-12-19T15:01:33.542Z,101299.19
2022-12-19T15:04:49.547Z,101298.09
2022-12-19T15:07:07.232Z,101303.50
2022-12-19T15:11:08.132Z,101314.41
2022-12-19T15:14:54.529Z,101322.47
2022-12-19T15:16:23.084Z,101321.41
2022-12-19T15:18:51.531Z,101316.00
2022-12-19T15:21:18.043Z,101306.31
2022-12-19T15:23:45.342Z,101302.75
2022-12-19T15:26:18.231Z,101310.09
2022-12-19T15:28:50.777Z,101313.66
2022-12-19T15:31:24.281Z,101316.34
2022-12-19T15:34:32.367Z,101327.97
2022-12-19T15:36:37.600Z,101330.69
2022-12-19T15:39:04.531Z,101343.28
2022-12-19T15:41:31.455Z,101341.69
2022-12-19T15:44:06.131Z,101352.47
2022-12-19T15:46:33.549Z,101344.50
2022-12-19T15:49:01.154Z,101356.13
2022-12-19T15:51:27.913Z,101360.78
2022-12-19T15:53:56.979Z,101353.66
2022-12-19T15:56:35.119Z,101357.22
2022-12-19T15:59:03.271Z,101361.84
2022-12-19T16:01:32.037Z,101355.59
2022-12-19T16:04:00.766Z,101352.03
2022-12-19T16:06:28.502Z,101358.41
2022-12-19T16:08:55.792Z,101357.53
2022-12-19T16:11:24.459Z,101367.34
2022-12-19T16:13:56.725Z,101353.88
2022-12-19T16:16:23.448Z,101363.69
2022-12-19T16:18:50.115Z,101356.56
2022-12-19T16:21:27.530Z,101347.63
2022-12-19T16:23:59.943Z,101338.34
2022-12-19T16:26:33.490Z,101350.97
2022-12-19T16:29:00.787Z,101352.56
2022-12-19T16:31:28.022Z,101352.56
2022-12-19T16:33:54.944Z,101348.03
2022-12-19T16:36:21.578Z,101354.28
2022-12-19T16:38:48.181Z,101346.22
2022-12-19T16:41:18.260Z,101349.66
2022-12-19T16:43:45.661Z,101346.97
2022-12-19T16:46:23.798Z,101358.50
2022-12-19T16:48:50.723Z,101353.00
2022-12-19T16:51:20.054Z,101363.66
2022-12-19T16:53:47.831Z,101360.09
2022-12-19T16:56:34.541Z,101362.91
2022-12-19T16:59:08.325Z,101358.38
2022-12-19T17:01:35.767Z,101360.09
2022-12-19T17:04:02.434Z,101370.03
2022-12-19T17:06:28.968Z,101364.63
2022-12-19T17:08:55.559Z,101356.56
2022-12-19T17:11:25.885Z,101353.84
2022-12-19T17:14:01.309Z,101350.28
2022-12-19T17:16:28.917Z,101342.84
2022-12-19T17:18:57.681Z,101337.22
2022-12-19T17:21:24.267Z,101348.00
2022-12-19T17:23:51.599Z,101349.00
2022-12-19T17:26:18.625Z,101351.78
2022-12-19T17:28:48.205Z,101348.25
2022-12-19T17:31:23.265Z,101350.06
2022-12-19T17:33:50.367Z,101356.31
2022-12-19T17:36:21.391Z,101350.94
2022-12-19T17:38:51.312Z,101351.69
2022-12-19T17:41:20.961Z,101347.25
2022-12-19T17:43:47.608Z,101347.03
2022-12-19T17:46:22.749Z,101340.69
2022-12-19T17:48:52.131Z,101344.97
2022-12-19T17:51:21.309Z,101346.72
2022-12-19T17:53:48.060Z,101347.56
2022-12-19T17:56:17.179Z,101335.81
2022-12-19T17:58:44.268Z,101333.00
2022-12-19T18:01:22.453Z,101335.59
2022-12-19T18:03:51.032Z,101340.88
2022-12-19T18:06:18.170Z,101340.75
2022-12-19T18:08:44.919Z,101334.50
2022-12-19T18:11:19.866Z,101321.00
2022-12-19T18:13:47.471Z,101337.09
2022-12-19T18:16:17.257Z,101333.53
2022-12-19T18:18:44.506Z,101321.88
2022-12-19T18:21:15.004Z,101322.75
2022-12-19T18:23:41.775Z,101327.16
2022-12-19T18:26:10.737Z,101326.28
2022-12-19T18:28:38.140Z,101323.59
2022-12-19T18:31:14.309Z,101327.16
2022-12-19T18:33:43.523Z,101346.66
2022-12-19T18:36:25.102Z,101335.88
2022-12-19T18:38:52.862Z,101351.84
2022-12-19T18:41:19.995Z,101355.38
2022-12-19T18:43:47.090Z,101348.16
2022-12-19T18:46:16.703Z,101356.25
2022-12-19T18:48:45.490Z,101351.59
2022-12-19T18:51:17.754Z,101361.41
2022-12-19T18:53:46.067Z,101363.16
2022-12-19T18:56:13.084Z,101357.66
2022-12-19T18:58:40.048Z,101356.69
2022-12-19T19:01:13.479Z,101352.91
2022-12-19T19:03:41.824Z,101354.50
2022-12-19T19:06:19.027Z,101358.94
2022-12-19T19:08:45.954Z,101357.84
2022-12-19T19:11:28.580Z,101354.28
2022-12-19T19:13:55.382Z,101349.88
2022-12-19T19:16:26.909Z,101347.16
2022-12-19T19:18:55.701Z,101350.72
2022-12-19T19:21:25.484Z,101345.34
2022-12-19T19:24:00.279Z,101348.03
2022-12-19T19:26:26.876Z,101344.38
2022-12-19T19:28:53.401Z,101360.66
2022-12-19T19:31:23.456Z,101364.34
2022-12-19T19:33:56.098Z,101359.78
2022-12-19T19:36:26.861Z,101349.00
2022-12-19T19:38:56.008Z,101357.09
2022-12-19T19:41:29.171Z,101362.38
2022-12-19T19:43:57.243Z,101358.94
2022-12-19T19:46:23.787Z,101357.97
2022-12-19T19:48:50.287Z,101362.38
2022-12-19T19:51:17.324Z,101364.97
2022-12-19T19:53:44.145Z,101364.09
2022-12-19T19:56:10.881Z,101364.97
2022-12-19T19:58:37.474Z,101367.66
2022-12-19T20:01:12.240Z,101372.09
2022-12-19T20:03:41.885Z,101376.28
2022-12-19T20:06:10.254Z,101384.25
2022-12-19T20:08:40.057Z,101377.03
2022-12-19T20:11:08.979Z,101381.44
2022-12-19T20:13:35.952Z,101385.97
2022-12-19T20:16:08.450Z,101386.94
2022-12-19T20:18:36.457Z,101389.75
2022-12-19T20:21:07.806Z,101397.09
2022-12-19T20:23:38.113Z,101393.56
2022-12-19T20:26:06.283Z,101389.00
2022-12-19T20:28:33.268Z,101387.94
2022-12-19T20:31:00.466Z,101383.41
2022-12-19T20:33:27.587Z,101383.28
2022-12-19T20:35:58.182Z,101376.81
2022-12-19T20:38:25.206Z,101372.28
2022-12-19T20:40:55.659Z,101378.66
2022-12-19T20:43:23.445Z,101382.97
2022-12-19T20:45:50.581Z,101390.09
2022-12-19T20:48:17.476Z,101380.03
2022-12-19T20:50:44.195Z,101383.50
2022-12-19T20:53:10.753Z,101381.66
2022-12-19T20:55:37.333Z,101370.75
2022-12-19T20:58:03.928Z,101380.56
2022-12-19T21:00:30.512Z,101374.19
2022-12-19T21:05:52.214Z,101384.00
2022-12-19T21:08:18.715Z,101387.69
2022-12-19T21:10:45.219Z,101384.13
2022-12-19T21:13:11.846Z,101394.91
2022-12-19T21:15:38.520Z,101400.09
2022-12-19T21:18:05.224Z,101408.28
2022-12-19T21:20:36.564Z,101406.47
2022-12-19T21:23:03.147Z,101402.91
2022-12-19T21:25:29.908Z,101409.38
2022-12-19T21:27:56.442Z,101405.19
2022-12-19T21:30:22.998Z,101411.78
2022-12-19T21:32:49.784Z,101403.03
2022-12-19T21:35:16.355Z,101398.84
2022-12-19T21:37:49.715Z,101403.47
2022-12-19T21:40:16.749Z,101393.88
2022-12-19T21:42:43.278Z,101394.75
2022-12-19T21:45:10.798Z,101379.53
2022-12-19T21:47:39.617Z,101392.28
2022-12-19T21:50:09.230Z,101392.50
2022-12-19T21:52:36.653Z,101390.91
2022-12-19T21:55:04.557Z,101381.94
2022-12-19T21:57:31.057Z,101382.81
2022-12-19T21:59:57.592Z,101377.53
2022-12-19T22:02:24.268Z,101385.50
2022-12-19T22:04:51.000Z,101370.94
2022-12-19T22:07:17.553Z,101373.50
2022-12-19T22:09:45.295Z,101380.75
2022-12-19T22:12:12.878Z,101381.59
2022-12-19T22:14:39.627Z,101367.03
2022-12-19T22:17:06.179Z,101378.56
2022-12-19T22:19:32.794Z,101379.31
2022-12-19T22:21:59.491Z,101380.81
2022-12-19T22:24:26.090Z,101369.78
2022-12-19T22:26:52.678Z,101366.91
2022-12-19T22:29:19.794Z,101365.06
2022-12-19T22:31:47.275Z,101364.94
2022-12-19T22:34:16.376Z,101347.66
2022-12-19T22:36:43.653Z,101339.56
2022-12-19T22:39:13.023Z,101343.75
2022-12-19T22:41:40.227Z,101332.09
2022-12-19T22:44:08.599Z,101330.38
2022-12-19T22:46:37.537Z,101328.56
2022-12-19T22:49:06.107Z,101325.75
2022-12-19T22:51:34.885Z,101319.47
2022-12-19T22:54:04.274Z,101325.84
2022-12-19T22:56:32.240Z,101320.47
2022-12-19T22:59:01.064Z,101320.47
2022-12-19T23:01:34.220Z,101332.22
2022-12-19T23:04:02.601Z,101331.47
2022-12-19T23:06:32.257Z,101334.53
2022-12-19T23:08:59.053Z,101331.91
2022-12-19T23:11:29.366Z,101328.34
2022-12-19T23:13:55.964Z,101340.97
2022-12-19T23:16:22.569Z,101328.28
2022-12-19T23:18:49.053Z,101319.19
2022-12-19T23:21:21.466Z,101313.34
2022-12-19T23:23:51.096Z,101319.25
2022-12-19T23:26:20.658Z,101319.63
2022-12-19T23:28:56.441Z,101310.44
2022-12-19T23:31:23.586Z,101325.06
2022-12-19T23:33:50.446Z,101318.47
2022-12-19T23:36:32.256Z,101316.38
2022-12-19T23:39:04.598Z,101319.59
2022-12-19T23:41:31.211Z,101326.47
2022-12-19T23:43:57.954Z,101319.88
2022-12-19T23:46:26.395Z,101317.78
2022-12-19T23:48:53.449Z,101303.19
2022-12-19T23:51:23.007Z,101314.59
2022-12-19T23:53:49.494Z,101308.97
2022-12-19T23:56:24.603Z,101307.88
2022-12-19T23:58:51.741Z,101307.63
